sensor_id;sensor_type;location;lat;lon;timestamp;pressure;altitude;pressure_sealevel;temperature
50206;BMP280;36098;48.390;10.856;2022-10-17T00:00:53;96661.91;;;24.40
50206;BMP280;36098;48.390;10.856;2022-10-17T00:03:18;96660.31;;;24.49
50206;BMP280;36098;48.390;10.856;2022-10-17T00:05:45;96666.41;;;24.44
50206;BMP280;36098;48.390;10.856;2022-10-17T00:08:12;96660.84;;;24.41
50206;BMP280;36098;48.390;10.856;2022-10-17T00:10:38;96659.53;;;24.38
50206;BMP280;36098;48.390;10.856;2022-10-17T00:13:05;96661.09;;;24.49
50206;BMP280;36098;48.390;10.856;2022-10-17T00:15:31;96668.22;;;24.44
50206;BMP280;36098;48.390;10.856;2022-10-17T00:17:57;96674.03;;;24.41
50206;BMP280;36098;48.390;10.856;2022-10-17T00:20:22;96671.41;;;24.41
50206;BMP280;36098;48.390;10.856;2022-10-17T00:22:48;96662.94;;;24.39
50206;BMP280;36098;48.390;10.856;2022-10-17T00:25:13;96676.69;;;24.51
50206;BMP280;36098;48.390;10.856;2022-10-17T00:27:40;96672.72;;;24.43
50206;BMP280;36098;48.390;10.856;2022-10-17T00:30:08;96671.16;;;24.37
50206;BMP280;36098;48.390;10.856;2022-10-17T00:32:34;96679.84;;;24.33
50206;BMP280;36098;48.390;10.856;2022-10-17T00:34:59;96676.69;;;24.36
50206;BMP280;36098;48.390;10.856;2022-10-17T00:37:25;96677.47;;;24.31
50206;BMP280;36098;48.390;10.856;2022-10-17T00:39:50;96694.34;;;24.30
50206;BMP280;36098;48.390;10.856;2022-10-17T00:42:15;96689.09;;;24.35
50206;BMP280;36098;48.390;10.856;2022-10-17T00:47:10;96685.41;;;24.41
50206;BMP280;36098;48.390;10.856;2022-10-17T00:49:37;96686.72;;;24.39
50206;BMP280;36098;48.390;10.856;2022-10-17T00:52:10;96685.91;;;24.33
50206;BMP280;36098;48.390;10.856;2022-10-17T00:54:40;96692.00;;;24.34
50206;BMP280;36098;48.390;10.856;2022-10-17T00:57:07;96682.50;;;24.33
50206;BMP280;36098;48.390;10.856;2022-10-17T00:59:33;96681.44;;;24.39
50206;BMP280;36098;48.390;10.856;2022-10-17T01:02:03;96697.28;;;24.34
50206;BMP280;36098;48.390;10.856;2022-10-17T01:04:29;96694.63;;;24.29
50206;BMP280;36098;48.390;10.856;2022-10-17T01:06:54;96699.91;;;24.29
50206;BMP280;36098;48.390;10.856;2022-10-17T01:09:20;96694.88;;;24.27
50206;BMP280;36098;48.390;10.856;2022-10-17T01:11:53;96698.59;;;24.36
50206;BMP280;36098;48.390;10.856;2022-10-17T01:16:55;96707.56;;;24.30
50206;BMP280;36098;48.390;10.856;2022-10-17T01:19:58;96707.56;;;24.25
50206;BMP280;36098;48.390;10.856;2022-10-17T01:27:51;96705.19;;;24.29
50206;BMP280;36098;48.390;10.856;2022-10-17T01:30:26;96706.22;;;24.23
50206;BMP280;36098;48.390;10.856;2022-10-17T01:32:58;96702.81;;;24.22
50206;BMP280;36098;48.390;10.856;2022-10-17T01:35:33;96698.59;;;24.26
50206;BMP280;36098;48.390;10.856;2022-10-17T01:38:12;96688.56;;;24.23
50206;BMP280;36098;48.390;10.856;2022-10-17T01:40:48;96692.25;;;24.22
50206;BMP280;36098;48.390;10.856;2022-10-17T01:43:32;96683.28;;;24.18
50206;BMP280;36098;48.390;10.856;2022-10-17T01:46:02;96685.38;;;24.16
50206;BMP280;36098;48.390;10.856;2022-10-17T01:48:34;96688.56;;;24.23
50206;BMP280;36098;48.390;10.856;2022-10-17T01:51:08;96686.97;;;24.22
50206;BMP280;36098;48.390;10.856;2022-10-17T01:53:40;96679.06;;;24.17
50206;BMP280;36098;48.390;10.856;2022-10-17T01:56:08;96675.34;;;24.18
50206;BMP280;36098;48.390;10.856;2022-10-17T01:58:39;96675.34;;;24.18
50206;BMP280;36098;48.390;10.856;2022-10-17T02:01:06;96662.69;;;24.20
50206;BMP280;36098;48.390;10.856;2022-10-17T02:03:34;96671.63;;;24.14
50206;BMP280;36098;48.390;10.856;2022-10-17T02:06:00;96669.81;;;24.15
50206;BMP280;36098;48.390;10.856;2022-10-17T02:08:28;96664.25;;;24.11
50206;BMP280;36098;48.390;10.856;2022-10-17T02:11:00;96663.72;;;24.09
50206;BMP280;36098;48.390;10.856;2022-10-17T02:16:11;96666.63;;;24.13
50206;BMP280;36098;48.390;10.856;2022-10-17T02:19:00;96664.78;;;24.08
50206;BMP280;36098;48.390;10.856;2022-10-17T02:24:14;96663.72;;;24.09
50206;BMP280;36098;48.390;10.856;2022-10-17T02:26:52;96659.00;;;24.21
50206;BMP280;36098;48.390;10.856;2022-10-17T02:29:24;96671.13;;;24.17
50206;BMP280;36098;48.390;10.856;2022-10-17T02:32:12;96676.91;;;24.14
50206;BMP280;36098;48.390;10.856;2022-10-17T02:34:47;96674.56;;;24.08
50206;BMP280;36098;48.390;10.856;2022-10-17T02:37:15;96666.09;;;24.06
50206;BMP280;36098;48.390;10.856;2022-10-17T02:39:43;96668.22;;;24.09
50206;BMP280;36098;48.390;10.856;2022-10-17T02:42:11;96674.56;;;24.18
50206;BMP280;36098;48.390;10.856;2022-10-17T02:44:40;96675.31;;;24.13
50206;BMP280;36098;48.390;10.856;2022-10-17T02:47:16;96677.72;;;24.10
50206;BMP280;36098;48.390;10.856;2022-10-17T02:49:48;96677.72;;;24.10
50206;BMP280;36098;48.390;10.856;2022-10-17T02:52:34;96680.06;;;24.06
50206;BMP280;36098;48.390;10.856;2022-10-17T02:55:05;96685.88;;;24.08
50206;BMP280;36098;48.390;10.856;2022-10-17T02:57:45;96685.34;;;24.06
50206;BMP280;36098;48.390;10.856;2022-10-17T03:00:14;96683.78;;;24.05
50206;BMP280;36098;48.390;10.856;2022-10-17T03:02:59;96689.03;;;24.05
50206;BMP280;36098;48.390;10.856;2022-10-17T03:05:27;96689.56;;;24.07
50206;BMP280;36098;48.390;10.856;2022-10-17T03:07:53;96688.50;;;24.03
50206;BMP280;36098;48.390;10.856;2022-10-17T03:10:19;96693.56;;;24.10
50206;BMP280;36098;48.390;10.856;2022-10-17T03:12:45;96694.31;;;24.05
50206;BMP280;36098;48.390;10.856;2022-10-17T03:15:11;96692.97;;;24.03
50206;BMP280;36098;48.390;10.856;2022-10-17T03:17:36;96690.63;;;24.01
50206;BMP280;36098;48.390;10.856;2022-10-17T03:20:03;96683.75;;;24.00
50206;BMP280;36098;48.390;10.856;2022-10-17T03:22:29;96685.06;;;23.98
50206;BMP280;36098;48.390;10.856;2022-10-17T03:24:54;96693.25;;;24.06
50206;BMP280;36098;48.390;10.856;2022-10-17T03:27:19;96696.16;;;24.05
50206;BMP280;36098;48.390;10.856;2022-10-17T03:29:45;96695.09;;;24.01
50206;BMP280;36098;48.390;10.856;2022-10-17T03:32:10;96689.00;;;23.95
50206;BMP280;36098;48.390;10.856;2022-10-17T03:34:35;96699.31;;;24.02
50206;BMP280;36098;48.390;10.856;2022-10-17T03:37:01;96699.84;;;23.94
50206;BMP280;36098;48.390;10.856;2022-10-17T03:39:26;96704.59;;;23.97
50206;BMP280;36098;48.390;10.856;2022-10-17T03:41:51;96700.13;;;23.97
50206;BMP280;36098;48.390;10.856;2022-10-17T03:44:16;96706.97;;;23.98
50206;BMP280;36098;48.390;10.856;2022-10-17T03:46:42;96714.63;;;24.00
50206;BMP280;36098;48.390;10.856;2022-10-17T03:49:08;96716.19;;;24.01
50206;BMP280;36098;48.390;10.856;2022-10-17T03:51:35;96715.66;;;23.94
50206;BMP280;36098;48.390;10.856;2022-10-17T03:54:00;96712.75;;;23.95
50206;BMP280;36098;48.390;10.856;2022-10-17T03:56:26;96715.94;;;23.97
50206;BMP280;36098;48.390;10.856;2022-10-17T03:58:53;96717.78;;;23.92
50206;BMP280;36098;48.390;10.856;2022-10-17T04:01:18;96717.50;;;23.93
50206;BMP280;36098;48.390;10.856;2022-10-17T04:03:48;96712.75;;;23.90
50206;BMP280;36098;48.390;10.856;2022-10-17T04:06:13;96704.81;;;23.85
50206;BMP280;36098;48.390;10.856;2022-10-17T04:08:39;96705.34;;;23.92
50206;BMP280;36098;48.390;10.856;2022-10-17T04:11:05;96711.16;;;23.94
50206;BMP280;36098;48.390;10.856;2022-10-17T04:13:32;96706.16;;;23.98
50206;BMP280;36098;48.390;10.856;2022-10-17T04:16:06;96719.06;;;23.94
50206;BMP280;36098;48.390;10.856;2022-10-17T04:18:31;96720.94;;;23.94
50206;BMP280;36098;48.390;10.856;2022-10-17T04:20:57;96708.00;;;23.92
50206;BMP280;36098;48.390;10.856;2022-10-17T04:23:22;96727.50;;;23.91
50206;BMP280;36098;48.390;10.856;2022-10-17T04:25:48;96722.75;;;23.88
50206;BMP280;36098;48.390;10.856;2022-10-17T04:28:13;96735.66;;;23.85
50206;BMP280;36098;48.390;10.856;2022-10-17T04:30:38;96740.16;;;23.89
50206;BMP280;36098;48.390;10.856;2022-10-17T04:33:04;96737.53;;;23.89
50206;BMP280;36098;48.390;10.856;2022-10-17T04:35:29;96751.75;;;23.83
50206;BMP280;36098;48.390;10.856;2022-10-17T04:37:55;96751.25;;;23.91
50206;BMP280;36098;48.390;10.856;2022-10-17T04:40:20;96748.09;;;23.94
50206;BMP280;36098;48.390;10.856;2022-10-17T04:42:46;96754.41;;;23.88
50206;BMP280;36098;48.390;10.856;2022-10-17T04:45:11;96747.03;;;23.95
50206;BMP280;36098;48.390;10.856;2022-10-17T04:47:37;96756.00;;;23.89
50206;BMP280;36098;48.390;10.856;2022-10-17T04:50:03;96752.25;;;23.80
50206;BMP280;36098;48.390;10.856;2022-10-17T04:52:28;96753.59;;;23.83
50206;BMP280;36098;48.390;10.856;2022-10-17T04:54:54;96749.91;;;23.84
50206;BMP280;36098;48.390;10.856;2022-10-17T04:57:19;96763.78;;;23.64
50206;BMP280;36098;48.390;10.856;2022-10-17T04:59:44;96749.25;;;23.62
50206;BMP280;36098;48.390;10.856;2022-10-17T05:02:10;96752.63;;;23.52
50206;BMP280;36098;48.390;10.856;2022-10-17T05:04:36;96755.34;;;23.62
50206;BMP280;36098;48.390;10.856;2022-10-17T05:07:01;96745.63;;;23.68
50206;BMP280;36098;48.390;10.856;2022-10-17T05:09:27;96748.50;;;23.71
50206;BMP280;36098;48.390;10.856;2022-10-17T05:11:52;96747.97;;;23.64
50206;BMP280;36098;48.390;10.856;2022-10-17T05:14:17;96754.81;;;23.65
50206;BMP280;36098;48.390;10.856;2022-10-17T05:16:43;96748.28;;;23.78
50206;BMP280;36098;48.390;10.856;2022-10-17T05:19:08;96747.72;;;23.71
50206;BMP280;36098;48.390;10.856;2022-10-17T05:21:33;96754.34;;;23.78
50206;BMP280;36098;48.390;10.856;2022-10-17T05:24:03;96747.44;;;23.67
50206;BMP280;36098;48.390;10.856;2022-10-17T05:26:28;96757.69;;;23.64
50206;BMP280;36098;48.390;10.856;2022-10-17T05:28:54;96758.09;;;23.87
50206;BMP280;36098;48.390;10.856;2022-10-17T05:31:19;96756.50;;;23.86
50206;BMP280;36098;48.390;10.856;2022-10-17T05:33:44;96752.19;;;23.70
50206;BMP280;36098;48.390;10.856;2022-10-17T05:36:09;96759.56;;;23.68
50206;BMP280;36098;48.390;10.856;2022-10-17T05:38:35;96759.56;;;23.68
50206;BMP280;36098;48.390;10.856;2022-10-17T05:41:02;96760.13;;;23.75
50206;BMP280;36098;48.390;10.856;2022-10-17T05:43:28;96756.94;;;23.73
50206;BMP280;36098;48.390;10.856;2022-10-17T05:45:54;96758.59;;;23.79
50206;BMP280;36098;48.390;10.856;2022-10-17T05:48:20;96760.72;;;23.82
50206;BMP280;36098;48.390;10.856;2022-10-17T05:50:46;96764.91;;;23.78
50206;BMP280;36098;48.390;10.856;2022-10-17T05:53:11;96768.59;;;23.77
50206;BMP280;36098;48.390;10.856;2022-10-17T05:55:37;96768.25;;;23.64
50206;BMP280;36098;48.390;10.856;2022-10-17T05:58:03;96774.84;;;23.61
50206;BMP280;36098;48.390;10.856;2022-10-17T06:00:28;96779.41;;;23.81
50206;BMP280;36098;48.390;10.856;2022-10-17T06:02:54;96782.56;;;23.78
50206;BMP280;36098;48.390;10.856;2022-10-17T06:05:19;96786.78;;;23.74
50206;BMP280;36098;48.390;10.856;2022-10-17T06:07:45;96783.31;;;23.73
50206;BMP280;36098;48.390;10.856;2022-10-17T06:10:11;96786.00;;;23.78
50206;BMP280;36098;48.390;10.856;2022-10-17T06:12:39;96787.81;;;23.73
50206;BMP280;36098;48.390;10.856;2022-10-17T06:15:04;96795.97;;;23.71
50206;BMP280;36098;48.390;10.856;2022-10-17T06:17:30;96798.66;;;23.76
50206;BMP280;36098;48.390;10.856;2022-10-17T06:19:55;96804.97;;;23.75
50206;BMP280;36098;48.390;10.856;2022-10-17T06:22:21;96796.69;;;23.57
50206;BMP280;36098;48.390;10.856;2022-10-17T06:24:47;96793.03;;;23.63
50206;BMP280;36098;48.390;10.856;2022-10-17T06:27:12;96808.53;;;23.54
50206;BMP280;36098;48.390;10.856;2022-10-17T06:29:38;96803.78;;;23.56
50206;BMP280;36098;48.390;10.856;2022-10-17T06:32:03;96808.06;;;23.62
50206;BMP280;36098;48.390;10.856;2022-10-17T06:34:28;96809.88;;;23.57
50206;BMP280;36098;48.390;10.856;2022-10-17T06:36:54;96813.59;;;23.61
50206;BMP280;36098;48.390;10.856;2022-10-17T06:39:19;96817.78;;;23.57
50206;BMP280;36098;48.390;10.856;2022-10-17T06:41:44;96820.06;;;23.43
50206;BMP280;36098;48.390;10.856;2022-10-17T06:44:10;96821.16;;;23.47
50206;BMP280;36098;48.390;10.856;2022-10-17T06:46:37;96825.38;;;23.48
50206;BMP280;36098;48.390;10.856;2022-10-17T06:49:03;96833.78;;;23.45
50206;BMP280;36098;48.390;10.856;2022-10-17T06:51:29;96841.47;;;23.47
50206;BMP280;36098;48.390;10.856;2022-10-17T06:53:57;96842.25;;;23.47
50206;BMP280;36098;48.390;10.856;2022-10-17T06:56:22;96845.84;;;23.36
50206;BMP280;36098;48.390;10.856;2022-10-17T06:58:48;96852.00;;;23.47
50206;BMP280;36098;48.390;10.856;2022-10-17T07:01:15;96855.22;;;23.54
50206;BMP280;36098;48.390;10.856;2022-10-17T07:03:41;96856.78;;;23.55
50206;BMP280;36098;48.390;10.856;2022-10-17T07:06:08;96858.16;;;23.57
50206;BMP280;36098;48.390;10.856;2022-10-17T07:08:35;96860.00;;;23.62
50206;BMP280;36098;48.390;10.856;2022-10-17T07:11:17;96853.16;;;23.66
50206;BMP280;36098;48.390;10.856;2022-10-17T07:13:43;96860.31;;;23.70
50206;BMP280;36098;48.390;10.856;2022-10-17T07:16:09;96863.16;;;23.64
50206;BMP280;36098;48.390;10.856;2022-10-17T07:18:35;96862.69;;;23.67
50206;BMP280;36098;48.390;10.856;2022-10-17T07:21:00;96863.47;;;23.67
50206;BMP280;36098;48.390;10.856;2022-10-17T07:23:26;96871.13;;;23.69
50206;BMP280;36098;48.390;10.856;2022-10-17T07:25:51;96872.44;;;23.66
50206;BMP280;36098;48.390;10.856;2022-10-17T07:28:17;96866.34;;;23.66
50206;BMP280;36098;48.390;10.856;2022-10-17T07:30:42;96874.19;;;23.51
50206;BMP280;36098;48.390;10.856;2022-10-17T07:33:08;96875.16;;;23.45
50206;BMP280;36098;48.390;10.856;2022-10-17T07:35:33;96872.78;;;23.43
50206;BMP280;36098;48.390;10.856;2022-10-17T07:37:59;96875.47;;;23.48
50206;BMP280;36098;48.390;10.856;2022-10-17T07:40:24;96878.38;;;23.47
50206;BMP280;36098;48.390;10.856;2022-10-17T07:42:49;96890.16;;;23.39
50206;BMP280;36098;48.390;10.856;2022-10-17T07:45:15;96895.47;;;23.44
50206;BMP280;36098;48.390;10.856;2022-10-17T07:47:40;96899.69;;;23.45
50206;BMP280;36098;48.390;10.856;2022-10-17T07:50:06;96892.28;;;23.42
50206;BMP280;36098;48.390;10.856;2022-10-17T07:52:31;96897.06;;;23.45
50206;BMP280;36098;48.390;10.856;2022-10-17T07:54:57;96893.38;;;23.46
50206;BMP280;36098;48.390;10.856;2022-10-17T07:57:22;96898.66;;;23.46
50206;BMP280;36098;48.390;10.856;2022-10-17T07:59:48;96890.19;;;23.44
50206;BMP280;36098;48.390;10.856;2022-10-17T08:02:33;96901.28;;;23.46
50206;BMP280;36098;48.390;10.856;2022-10-17T08:04:58;96898.66;;;23.46
50206;BMP280;36098;48.390;10.856;2022-10-17T08:07:24;96899.47;;;23.47
50206;BMP280;36098;48.390;10.856;2022-10-17T08:09:49;96901.53;;;23.45
50206;BMP280;36098;48.390;10.856;2022-10-17T08:12:15;96903.91;;;23.46
50206;BMP280;36098;48.390;10.856;2022-10-17T08:14:41;96902.63;;;23.49
50206;BMP280;36098;48.390;10.856;2022-10-17T08:17:06;96893.38;;;23.46
50206;BMP280;36098;48.390;10.856;2022-10-17T08:19:31;96882.03;;;23.46
50206;BMP280;36098;48.390;10.856;2022-10-17T08:21:57;96893.38;;;23.46
50206;BMP280;36098;48.390;10.856;2022-10-17T08:24:23;96895.25;;;23.51
50206;BMP280;36098;48.390;10.856;2022-10-17T08:26:48;96890.00;;;23.51
50206;BMP280;36098;48.390;10.856;2022-10-17T08:29:15;96893.69;;;23.55
50206;BMP280;36098;48.390;10.856;2022-10-17T08:31:40;96892.91;;;23.54
50206;BMP280;36098;48.390;10.856;2022-10-17T08:34:06;96893.44;;;23.56
50206;BMP280;36098;48.390;10.856;2022-10-17T08:36:31;96892.94;;;23.59
50206;BMP280;36098;48.390;10.856;2022-10-17T08:38:57;96903.78;;;23.63
50206;BMP280;36098;48.390;10.856;2022-10-17T08:41:53;96902.47;;;23.65
50206;BMP280;36098;48.390;10.856;2022-10-17T08:45:15;96899.63;;;23.72
50206;BMP280;36098;48.390;10.856;2022-10-17T08:47:17;96893.59;;;23.76
50206;BMP280;36098;48.390;10.856;2022-10-17T08:54:52;96897.78;;;24.09
50206;BMP280;36098;48.390;10.856;2022-10-17T08:57:17;96891.97;;;24.07
50206;BMP280;36098;48.390;10.856;2022-10-17T08:59:44;96892.75;;;24.07
50206;BMP280;36098;48.390;10.856;2022-10-17T09:02:41;96894.63;;;24.17
50206;BMP280;36098;48.390;10.856;2022-10-17T09:08:13;96901.22;;;24.14
50206;BMP280;36098;48.390;10.856;2022-10-17T09:10:57;96896.53;;;24.31
50206;BMP280;36098;48.390;10.856;2022-10-17T09:13:29;96898.19;;;24.42
50206;BMP280;36098;48.390;10.856;2022-10-17T09:19:19;96906.69;;;24.54
50206;BMP280;36098;48.390;10.856;2022-10-17T09:21:52;96910.03;;;24.40
50206;BMP280;36098;48.390;10.856;2022-10-17T09:26:53;96902.09;;;24.35
50206;BMP280;36098;48.390;10.856;2022-10-17T09:29:21;96894.47;;;24.38
50206;BMP280;36098;48.390;10.856;2022-10-17T09:31:52;96899.13;;;24.16
50206;BMP280;36098;48.390;10.856;2022-10-17T09:34:20;96900.31;;;24.45
50206;BMP280;36098;48.390;10.856;2022-10-17T09:36:46;96891.09;;;24.48
50206;BMP280;36098;48.390;10.856;2022-10-17T09:39:21;96890.78;;;24.39
50206;BMP280;36098;48.390;10.856;2022-10-17T09:41:53;96892.91;;;24.37
50206;BMP280;36098;48.390;10.856;2022-10-17T09:44:24;96895.28;;;24.44
50206;BMP280;36098;48.390;10.856;2022-10-17T09:47:13;96894.13;;;24.25
50206;BMP280;36098;48.390;10.856;2022-10-17T09:49:43;96892.50;;;24.09
50206;BMP280;36098;48.390;10.856;2022-10-17T09:55:03;96890.72;;;24.24
50206;BMP280;36098;48.390;10.856;2022-10-17T09:57:53;96887.31;;;24.29
50206;BMP280;36098;48.390;10.856;2022-10-17T10:00:31;96895.56;;;24.47
50206;BMP280;36098;48.390;10.856;2022-10-17T10:05:35;96893.00;;;24.62
50206;BMP280;36098;48.390;10.856;2022-10-17T10:08:03;96892.53;;;24.75
50206;BMP280;36098;48.390;10.856;2022-10-17T10:13:14;96894.19;;;25.26
50206;BMP280;36098;48.390;10.856;2022-10-17T10:15:48;96882.50;;;25.07
50206;BMP280;36098;48.390;10.856;2022-10-17T10:21:03;96893.91;;;25.08
50206;BMP280;36098;48.390;10.856;2022-10-17T10:23:28;96897.81;;;24.80
50206;BMP280;36098;48.390;10.856;2022-10-17T10:25:56;96885.16;;;25.12
50206;BMP280;36098;48.390;10.856;2022-10-17T10:28:26;96893.38;;;25.11
50206;BMP280;36098;48.390;10.856;2022-10-17T10:30:53;96898.81;;;24.74
50206;BMP280;36098;48.390;10.856;2022-10-17T10:33:22;96897.00;;;24.80
50206;BMP280;36098;48.390;10.856;2022-10-17T10:36:06;96889.97;;;25.20
50206;BMP280;36098;48.390;10.856;2022-10-17T10:38:32;96894.16;;;25.16
50206;BMP280;36098;48.390;10.856;2022-10-17T10:41:04;96884.34;;;24.97
50206;BMP280;36098;48.390;10.856;2022-10-17T10:43:45;96883.06;;;24.94
50206;BMP280;36098;48.390;10.856;2022-10-17T10:49:00;96886.28;;;25.21
50206;BMP280;36098;48.390;10.856;2022-10-17T10:51:53;96885.19;;;25.17
50206;BMP280;36098;48.390;10.856;2022-10-17T10:54:23;96883.09;;;25.19
50206;BMP280;36098;48.390;10.856;2022-10-17T10:56:53;96881.50;;;25.28
50206;BMP280;36098;48.390;10.856;2022-10-17T10:59:41;96875.41;;;25.37
50206;BMP280;36098;48.390;10.856;2022-10-17T11:02:18;96882.03;;;25.45
50206;BMP280;36098;48.390;10.856;2022-10-17T11:07:40;96875.66;;;25.76
50206;BMP280;36098;48.390;10.856;2022-10-17T11:13:17;96876.72;;;25.85
50206;BMP280;36098;48.390;10.856;2022-10-17T11:15:56;96878.28;;;25.91
50206;BMP280;36098;48.390;10.856;2022-10-17T11:18:27;96876.44;;;25.91
50206;BMP280;36098;48.390;10.856;2022-10-17T11:20:58;96870.88;;;25.98
50206;BMP280;36098;48.390;10.856;2022-10-17T11:26:07;96872.66;;;26.17
50206;BMP280;36098;48.390;10.856;2022-10-17T11:28:34;96864.19;;;26.25
50206;BMP280;36098;48.390;10.856;2022-10-17T11:31:07;96868.63;;;26.30
50206;BMP280;36098;48.390;10.856;2022-10-17T11:33:34;96874.44;;;26.37
50206;BMP280;36098;48.390;10.856;2022-10-17T11:36:04;96869.63;;;26.49
50206;BMP280;36098;48.390;10.856;2022-10-17T11:41:02;96866.63;;;26.70
50206;BMP280;36098;48.390;10.856;2022-10-17T11:43:41;96873.47;;;26.76
50206;BMP280;36098;48.390;10.856;2022-10-17T11:46:14;96870.00;;;26.81
50206;BMP280;36098;48.390;10.856;2022-10-17T11:48:58;96874.75;;;26.84
50206;BMP280;36098;48.390;10.856;2022-10-17T11:51:24;96874.75;;;26.84
50206;BMP280;36098;48.390;10.856;2022-10-17T11:53:56;96875.56;;;26.84
50206;BMP280;36098;48.390;10.856;2022-10-17T11:56:30;96875.53;;;26.89
50206;BMP280;36098;48.390;10.856;2022-10-17T11:59:37;96873.28;;;27.06
50206;BMP280;36098;48.390;10.856;2022-10-17T12:02:13;96877.19;;;27.18
50206;BMP280;36098;48.390;10.856;2022-10-17T12:04:58;96875.31;;;27.19
50206;BMP280;36098;48.390;10.856;2022-10-17T12:08:08;96873.72;;;27.23
50206;BMP280;36098;48.390;10.856;2022-10-17T12:10:51;96870.66;;;27.39
50206;BMP280;36098;48.390;10.856;2022-10-17T12:15:52;96864.81;;;27.42
50206;BMP280;36098;48.390;10.856;2022-10-17T12:18:17;96871.13;;;27.46
50206;BMP280;36098;48.390;10.856;2022-10-17T12:21:00;96867.09;;;27.54
50206;BMP280;36098;48.390;10.856;2022-10-17T12:23:28;96871.81;;;27.57
50206;BMP280;36098;48.390;10.856;2022-10-17T12:25:59;96857.97;;;27.65
50206;BMP280;36098;48.390;10.856;2022-10-17T12:31:10;96864.50;;;27.77
50206;BMP280;36098;48.390;10.856;2022-10-17T12:38:51;96853.00;;;27.87
50206;BMP280;36098;48.390;10.856;2022-10-17T12:52:24;96863.44;;;27.78
50206;BMP280;36098;48.390;10.856;2022-10-17T12:57:47;96852.25;;;27.81
50206;BMP280;36098;48.390;10.856;2022-10-17T13:03:15;96848.31;;;27.79
50206;BMP280;36098;48.390;10.856;2022-10-17T13:05:46;96856.28;;;27.79
50206;BMP280;36098;48.390;10.856;2022-10-17T13:08:17;96850.97;;;27.79
50206;BMP280;36098;48.390;10.856;2022-10-17T13:10:46;96854.41;;;27.79
50206;BMP280;36098;48.390;10.856;2022-10-17T13:16:05;96848.13;;;27.70
50206;BMP280;36098;48.390;10.856;2022-10-17T13:18:30;96841.56;;;27.63
50206;BMP280;36098;48.390;10.856;2022-10-17T13:21:01;96847.69;;;27.58
50206;BMP280;36098;48.390;10.856;2022-10-17T13:23:35;96848.50;;;27.54
50206;BMP280;36098;48.390;10.856;2022-10-17T13:28:30;96872.44;;;27.49
50206;BMP280;36098;48.390;10.856;2022-10-17T13:30:56;96867.97;;;27.44
50206;BMP280;36098;48.390;10.856;2022-10-17T13:33:38;96865.31;;;27.44
50206;BMP280;36098;48.390;10.856;2022-10-17T13:36:07;96865.88;;;27.41
50206;BMP280;36098;48.390;10.856;2022-10-17T13:38:36;96866.13;;;27.45
50206;BMP280;36098;48.390;10.856;2022-10-17T13:41:02;96870.09;;;27.42
50206;BMP280;36098;48.390;10.856;2022-10-17T13:43:29;96872.19;;;27.45
50206;BMP280;36098;48.390;10.856;2022-10-17T13:45:58;96869.03;;;27.43
50206;BMP280;36098;48.390;10.856;2022-10-17T13:48:29;96869.28;;;27.47
50206;BMP280;36098;48.390;10.856;2022-10-17T13:50:57;96865.63;;;27.38
50206;BMP280;36098;48.390;10.856;2022-10-17T13:56:04;96867.97;;;27.44
50206;BMP280;36098;48.390;10.856;2022-10-17T13:58:44;96866.38;;;27.43
50206;BMP280;36098;48.390;10.856;2022-10-17T14:01:11;96871.75;;;27.38
50206;BMP280;36098;48.390;10.856;2022-10-17T14:03:37;96867.56;;;27.32
50206;BMP280;36098;48.390;10.856;2022-10-17T14:06:11;96866.78;;;27.27
50206;BMP280;36098;48.390;10.856;2022-10-17T14:08:38;96876.34;;;27.28
50206;BMP280;36098;48.390;10.856;2022-10-17T14:11:55;96868.19;;;27.19
50206;BMP280;36098;48.390;10.856;2022-10-17T14:14:19;96871.03;;;27.28
50206;BMP280;36098;48.390;10.856;2022-10-17T14:16:46;96865.97;;;27.31
50206;BMP280;36098;48.390;10.856;2022-10-17T14:19:24;96873.16;;;27.26
50206;BMP280;36098;48.390;10.856;2022-10-17T14:21:54;96873.06;;;27.36
50206;BMP280;36098;48.390;10.856;2022-10-17T14:26:51;96879.19;;;27.36
50206;BMP280;36098;48.390;10.856;2022-10-17T14:29:27;96873.38;;;27.29
50206;BMP280;36098;48.390;10.856;2022-10-17T14:32:02;96876.78;;;27.35
50206;BMP280;36098;48.390;10.856;2022-10-17T14:34:32;96875.72;;;27.41
50206;BMP280;36098;48.390;10.856;2022-10-17T14:36:58;96872.75;;;27.42
50206;BMP280;36098;48.390;10.856;2022-10-17T14:39:25;96869.53;;;27.45
50206;BMP280;36098;48.390;10.856;2022-10-17T14:41:51;96870.66;;;27.39
50206;BMP280;36098;48.390;10.856;2022-10-17T14:46:45;96878.00;;;27.52
50206;BMP280;36098;48.390;10.856;2022-10-17T14:49:38;96876.47;;;27.41
50206;BMP280;36098;48.390;10.856;2022-10-17T14:54:46;96877.75;;;27.15
50206;BMP280;36098;48.390;10.856;2022-10-17T14:59:56;96873.72;;;27.23
50206;BMP280;36098;48.390;10.856;2022-10-17T15:02:27;96881.06;;;27.31
50206;BMP280;36098;48.390;10.856;2022-10-17T15:04:52;96878.19;;;27.27
50206;BMP280;36098;48.390;10.856;2022-10-17T15:07:18;96880.84;;;27.27
50206;BMP280;36098;48.390;10.856;2022-10-17T15:09:46;96890.00;;;27.12
50206;BMP280;36098;48.390;10.856;2022-10-17T15:12:20;96877.31;;;26.99
50206;BMP280;36098;48.390;10.856;2022-10-17T15:14:46;96880.22;;;26.97
50206;BMP280;36098;48.390;10.856;2022-10-17T15:17:16;96882.38;;;26.95
50206;BMP280;36098;48.390;10.856;2022-10-17T15:19:43;96886.91;;;26.90
50206;BMP280;36098;48.390;10.856;2022-10-17T15:22:10;96885.34;;;26.84
50206;BMP280;36098;48.390;10.856;2022-10-17T15:24:35;96893.09;;;26.75
50206;BMP280;36098;48.390;10.856;2022-10-17T15:27:01;96895.28;;;26.63
50206;BMP280;36098;48.390;10.856;2022-10-17T15:29:26;96896.88;;;26.59
50206;BMP280;36098;48.390;10.856;2022-10-17T15:31:52;96898.19;;;26.62
50206;BMP280;36098;48.390;10.856;2022-10-17T15:34:17;96897.66;;;26.65
50206;BMP280;36098;48.390;10.856;2022-10-17T15:36:48;96899.22;;;26.66
50206;BMP280;36098;48.390;10.856;2022-10-17T15:39:14;96899.22;;;26.66
50206;BMP280;36098;48.390;10.856;2022-10-17T15:41:39;96908.81;;;26.57
50206;BMP280;36098;48.390;10.856;2022-10-17T15:44:04;96909.88;;;26.56
50206;BMP280;36098;48.390;10.856;2022-10-17T15:46:32;96906.97;;;26.52
50206;BMP280;36098;48.390;10.856;2022-10-17T15:49:03;96914.66;;;26.49